Time;durP1;ratioP1;P1;durP2;ratioP2;P2;SDS_P1;SDS_P2;PMS_P1;PMS_P2;Temp;Humidity;BMP_temperature;BMP_pressure;BME280_temperature;BME280_humidity;BME280_pressure;Samples;Min_cycle;Max_cycle;Signal;HPM_P1;HPM_P2
2022/11/14 00:00:29;;;;;;;28.83;16.85;;;;;;;6.86;100.00;101732.94;5068939;28;20044;-68
2022/11/14 00:02:59;;;;;;;31.88;17.63;;;;;;;6.76;100.00;101742.53;5068907;28;20528;-68
2022/11/14 00:05:24;;;;;;;30.92;16.98;;;;;;;6.21;100.00;101628.19;5068798;28;20086;-67
2022/11/14 00:07:50;;;;;;;28.38;16.27;;;;;;;6.79;100.00;101727.38;5068613;28;20127;-67
2022/11/14 00:10:16;;;;;;;29.98;16.52;;;;;;;6.73;100.00;101706.38;5069116;28;20482;-67
2022/11/14 00:12:41;;;;;;;32.65;21.10;;;;;;;6.18;100.00;101608.34;5052014;28;20043;-68
2022/11/14 00:15:07;;;;;;;28.75;18.23;;;;;;;6.99;100.00;101737.28;5068921;28;20457;-69
2022/11/14 00:17:33;;;;;;;25.98;17.33;;;;;;;7.03;100.00;101732.47;5068675;28;20114;-68
2022/11/14 00:19:58;;;;;;;24.85;15.77;;;;;;;6.93;100.00;101710.38;5068833;28;20186;-69
2022/11/14 00:22:24;;;;;;;28.48;17.13;;;;;;;7.06;100.00;101742.94;5068578;28;20073;-68
2022/11/14 00:24:49;;;;;;;26.83;18.77;;;;;;;6.93;100.00;101725.78;5068917;28;20037;-67
2022/11/14 00:27:14;;;;;;;22.65;17.00;;;;;;;6.96;100.00;101719.97;5068677;28;20047;-68
2022/11/14 00:29:40;;;;;;;26.55;18.15;;;;;;;6.83;100.00;101725.91;5068572;28;20028;-68
2022/11/14 00:32:06;;;;;;;30.50;20.33;;;;;;;6.72;100.00;101701.16;5070250;28;20052;-68
2022/11/14 00:34:32;;;;;;;28.08;20.52;;;;;;;6.90;100.00;101724.66;5070798;28;20493;-68
2022/11/14 00:37:00;;;;;;;24.83;17.60;;;;;;;6.30;100.00;101605.78;5069748;28;20399;-68
2022/11/14 00:39:26;;;;;;;26.08;18.30;;;;;;;6.86;100.00;101710.72;5070635;28;20441;-68
2022/11/14 00:41:52;;;;;;;22.30;16.95;;;;;;;6.21;100.00;101582.91;5070573;28;20032;-67
2022/11/14 00:44:17;;;;;;;22.55;16.17;;;;;;;6.91;100.00;101717.06;5070764;28;20028;-68
2022/11/14 00:46:43;;;;;;;19.92;15.50;;;;;;;6.90;100.00;101709.25;5070679;28;20477;-68
2022/11/14 00:49:08;;;;;;;21.95;16.50;;;;;;;6.84;100.00;101704.59;5068152;28;20115;-69
2022/11/14 00:51:34;;;;;;;43.25;15.88;;;;;;;6.85;100.00;101716.63;5070553;28;20028;-68
2022/11/14 00:53:59;;;;;;;23.20;15.02;;;;;;;6.78;100.00;101715.31;5070706;28;20463;-67
2022/11/14 00:56:24;;;;;;;25.10;16.75;;;;;;;6.56;100.00;101681.19;5070556;28;20082;-68
2022/11/14 00:58:50;;;;;;;28.42;15.73;;;;;;;6.71;100.00;101704.50;5070702;28;20032;-68
2022/11/14 01:01:16;;;;;;;25.83;17.33;;;;;;;6.77;100.00;101705.81;5070426;28;20032;-68
2022/11/14 01:03:41;;;;;;;37.10;15.75;;;;;;;6.75;100.00;101709.06;5070138;28;20024;-69
2022/11/14 01:06:10;;;;;;;34.88;15.30;;;;;;;6.64;100.00;101704.03;5070599;28;20158;-66
2022/11/14 01:08:35;;;;;;;27.27;16.73;;;;;;;5.92;100.00;101573.06;5070510;28;20071;-65
2022/11/14 01:11:08;;;;;;;29.00;16.42;;;;;;;6.67;100.00;101692.19;5070511;28;20479;-68
2022/11/14 01:13:34;;;;;;;29.48;16.38;;;;;;;5.90;100.00;101608.84;5070221;28;20107;-68
2022/11/14 01:16:00;;;;;;;33.03;17.05;;;;;;;4.83;100.00;101461.72;5070546;28;20031;-68
2022/11/14 01:18:26;;;;;;;27.33;16.58;;;;;;;6.05;100.00;101690.28;5070148;28;20032;-68
2022/11/14 01:20:52;;;;;;;35.17;18.00;;;;;;;6.05;100.00;101664.63;5069209;28;20036;-68
2022/11/14 01:23:17;;;;;;;40.33;17.13;;;;;;;6.30;100.00;101703.22;5069029;28;20033;-66
2022/11/14 01:25:43;;;;;;;59.17;17.20;;;;;;;6.30;100.00;101688.72;5070342;28;20170;-68
2022/11/14 01:28:13;;;;;;;40.05;17.50;;;;;;;6.17;100.00;101688.63;5068961;28;20501;-68
2022/11/14 01:30:39;;;;;;;51.63;16.58;;;;;;;5.99;100.00;101694.16;5070032;28;20466;-68
2022/11/14 01:33:05;;;;;;;44.05;18.92;;;;;;;5.91;100.00;101677.28;5070003;28;20033;-67
2022/11/14 01:35:33;;;;;;;45.67;17.98;;;;;;;5.83;100.00;101681.81;5070170;28;20037;-68
2022/11/14 01:37:58;;;;;;;47.20;17.55;;;;;;;5.66;100.00;101670.28;5070524;28;20090;-68
2022/11/14 01:40:24;;;;;;;53.20;17.88;;;;;;;5.62;100.00;101675.97;5070382;28;20499;-68
2022/11/14 01:43:23;;;;;;;48.67;19.15;;;;;;;4.79;100.00;101574.84;5070655;28;20029;-66
2022/11/14 01:45:54;;;;;;;52.63;19.00;;;;;;;5.61;100.00;101675.84;5070591;28;20033;-68
2022/11/14 01:48:22;;;;;;;116.65;22.45;;;;;;;5.69;100.00;101669.63;5070034;28;20375;-68
2022/11/14 01:50:54;;;;;;;80.88;21.38;;;;;;;5.75;100.00;101664.09;5068583;28;20548;-68
2022/11/14 01:53:20;;;;;;;50.50;20.63;;;;;;;5.91;100.00;101677.28;5070096;28;20033;-68
2022/11/14 01:55:45;;;;;;;85.32;22.08;;;;;;;6.05;100.00;101665.50;5069990;28;20036;-67
2022/11/14 01:58:12;;;;;;;85.28;20.90;;;;;;;6.21;100.00;101666.66;5069800;28;20021;-68
2022/11/14 02:00:37;;;;;;;86.60;22.63;;;;;;;6.20;100.00;101652.94;5072880;28;20024;-68
2022/11/14 02:03:03;;;;;;;81.00;21.00;;;;;;;6.35;100.00;101665.09;5073591;28;20474;-68
2022/11/14 02:05:32;;;;;;;44.50;21.67;;;;;;;6.39;100.00;101660.31;5074063;28;20021;-68
2022/11/14 02:07:58;;;;;;;62.40;19.70;;;;;;;6.38;100.00;101655.97;5073854;28;20087;-68
2022/11/14 02:10:23;;;;;;;55.85;20.08;;;;;;;5.81;100.00;101562.03;5073435;28;20578;-68
2022/11/14 02:12:50;;;;;;;55.00;20.67;;;;;;;6.25;100.00;101660.97;5073420;28;20033;-68
2022/11/14 02:15:16;;;;;;;51.13;21.20;;;;;;;6.19;100.00;101665.66;5073650;28;20150;-68
2022/11/14 02:17:42;;;;;;;40.00;20.33;;;;;;;6.15;100.00;101661.97;5073450;28;20115;-68
2022/11/14 02:20:11;;;;;;;35.15;20.60;;;;;;;6.23;100.00;101666.00;5073626;28;20037;-68
2022/11/14 02:22:39;;;;;;;35.78;20.27;;;;;;;5.53;100.00;101534.34;5056403;28;20040;-68
2022/11/14 02:25:06;;;;;;;32.97;19.52;;;;;;;6.36;100.00;101661.78;5053091;28;20470;-68
2022/11/14 02:27:33;;;;;;;65.53;24.77;;;;;;;6.11;100.00;101671.09;5053549;28;20033;-68
2022/11/14 02:30:08;;;;;;;50.85;33.70;;;;;;;5.99;100.00;101670.19;5052183;28;20033;-69
2022/11/14 02:32:34;;;;;;;49.30;24.90;;;;;;;5.26;100.00;101528.06;5051059;28;20037;-68
2022/11/14 02:34:59;;;;;;;82.97;25.00;;;;;;;5.50;100.00;101595.63;5053175;28;20039;-68
2022/11/14 02:37:24;;;;;;;103.53;23.77;;;;;;;5.73;100.00;101655.38;5053310;28;20098;-69
2022/11/14 02:39:50;;;;;;;74.78;22.15;;;;;;;5.66;100.00;101646.34;5052907;28;20025;-68
2022/11/14 02:42:15;;;;;;;98.60;22.52;;;;;;;5.76;100.00;101671.00;5070304;28;20032;-69
2022/11/14 02:44:41;;;;;;;79.35;23.92;;;;;;;5.62;100.00;101670.84;5070583;28;20075;-69
2022/11/14 02:47:06;;;;;;;103.70;23.92;;;;;;;5.54;100.00;101664.22;5070601;28;20051;-69
2022/11/14 02:49:31;;;;;;;101.65;22.77;;;;;;;5.37;100.00;101650.16;5088891;28;20035;-68
2022/11/14 02:51:57;;;;;;;92.28;21.52;;;;;;;5.50;100.00;101665.66;5095611;28;20071;-68
2022/11/14 02:54:22;;;;;;;76.75;21.95;;;;;;;5.60;100.00;101668.94;5090412;28;20040;-68
2022/11/14 02:56:48;;;;;;;102.32;23.77;;;;;;;4.84;100.00;101533.47;5090591;28;20055;-68
2022/11/14 02:59:13;;;;;;;117.85;23.30;;;;;;;5.33;100.00;101674.63;5090657;28;20526;-68
2022/11/14 03:01:38;;;;;;;82.03;21.02;;;;;;;5.27;100.00;101674.13;5073415;28;20043;-68
2022/11/14 03:04:04;;;;;;;88.00;20.92;;;;;;;5.18;100.00;101668.28;5090401;28;20043;-68
2022/11/14 03:06:30;;;;;;;128.15;23.02;;;;;;;5.14;100.00;101681.63;5090422;28;20075;-68
2022/11/14 03:08:55;;;;;;;89.13;22.45;;;;;;;5.24;100.00;101676.44;5089898;28;20567;-68
2022/11/14 03:11:21;;;;;;;57.03;22.15;;;;;;;4.88;100.00;101636.06;5090293;28;20548;-68
2022/11/14 03:13:46;;;;;;;85.85;23.05;;;;;;;4.96;100.00;101673.38;5073124;28;20041;-68
2022/11/14 03:16:13;;;;;;;97.55;24.77;;;;;;;4.82;100.00;101683.44;5052501;28;20399;-68
2022/11/14 03:18:39;;;;;;;92.32;24.08;;;;;;;4.93;100.00;101670.59;5052476;28;20032;-68
2022/11/14 03:21:09;;;;;;;92.97;24.45;;;;;;;5.10;100.00;101671.94;5052087;28;20033;-69
2022/11/14 03:23:35;;;;;;;110.50;25.88;;;;;;;5.27;100.00;101678.34;5083446;28;20649;-68
2022/11/14 03:26:02;;;;;;;99.50;26.92;;;;;;;5.22;100.00;101654.97;5052382;28;20044;-69
2022/11/14 03:28:28;;;;;;;92.57;25.27;;;;;;;4.43;100.00;101536.25;5052283;28;20029;-68
2022/11/14 03:30:53;;;;;;;91.22;24.40;;;;;;;3.99;100.00;101462.97;5063982;28;20036;-68
2022/11/14 03:33:19;;;;;;;109.82;24.58;;;;;;;5.23;100.00;101681.47;5072082;28;20024;-69
2022/11/14 03:35:45;;;;;;;71.82;22.63;;;;;;;5.28;100.00;101682.69;5071823;28;20483;-68
2022/11/14 03:38:10;;;;;;;111.60;24.13;;;;;;;5.09;100.00;101658.22;5071863;28;20097;-68
2022/11/14 03:40:39;;;;;;;92.80;24.58;;;;;;;5.32;100.00;101674.47;5072011;28;20475;-68
2022/11/14 03:43:04;;;;;;;102.17;23.93;;;;;;;5.19;100.00;101670.06;5072221;28;20020;-69
2022/11/14 03:45:30;;;;;;;94.13;23.42;;;;;;;5.29;100.00;101690.50;5071696;28;20105;-68
2022/11/14 03:47:55;;;;;;;88.15;25.13;;;;;;;4.57;100.00;101554.34;5071702;28;20025;-68
2022/11/14 03:50:20;;;;;;;97.30;24.17;;;;;;;5.15;100.00;101651.03;5071573;28;20037;-68
2022/11/14 03:52:48;;;;;;;112.28;25.58;;;;;;;5.30;100.00;101679.47;5071501;28;20028;-68
2022/11/14 03:55:14;;;;;;;116.20;23.10;;;;;;;5.29;100.00;101687.94;5071793;28;20513;-66
2022/11/14 03:57:39;;;;;;;117.35;24.48;;;;;;;5.32;100.00;101682.16;5072060;28;20024;-69
2022/11/14 04:00:05;;;;;;;107.28;23.45;;;;;;;4.46;100.00;101543.28;5071362;28;20032;-68
2022/11/14 04:02:30;;;;;;;78.80;23.92;;;;;;;5.19;100.00;101672.63;5071529;28;20032;-68
2022/11/14 04:04:56;;;;;;;102.20;24.08;;;;;;;5.25;100.00;101683.34;5071219;28;20029;-68
2022/11/14 04:07:21;;;;;;;152.50;26.02;;;;;;;5.23;100.00;101676.34;5071578;28;20037;-68
2022/11/14 04:09:47;;;;;;;117.18;24.90;;;;;;;5.23;100.00;101671.22;5071500;28;20052;-66
2022/11/14 04:12:12;;;;;;;128.73;25.38;;;;;;;5.25;100.00;101641.50;5086957;28;20033;-69
2022/11/14 04:14:38;;;;;;;148.45;26.20;;;;;;;5.34;100.00;101680.63;5086853;28;20032;-68
2022/11/14 04:17:03;;;;;;;120.03;26.05;;;;;;;5.37;100.00;101659.47;5071312;28;20090;-68
2022/11/14 04:19:29;;;;;;;139.27;27.77;;;;;;;5.48;100.00;101668.88;5071065;28;20028;-66
2022/11/14 04:21:54;;;;;;;76.55;24.80;;;;;;;5.57;100.00;101664.47;5070472;28;20376;-67
2022/11/14 04:24:19;;;;;;;104.90;24.70;;;;;;;5.66;100.00;101671.97;5071164;28;20103;-69
2022/11/14 04:26:45;;;;;;;175.40;26.70;;;;;;;5.66;100.00;101656.59;5071215;28;20027;-68
2022/11/14 04:29:10;;;;;;;160.10;26.15;;;;;;;5.06;100.00;101572.63;5071234;28;20107;-68
2022/11/14 04:31:35;;;;;;;137.25;28.92;;;;;;;4.96;100.00;101566.81;5071084;28;20390;-68
2022/11/14 04:34:01;;;;;;;133.32;34.97;;;;;;;5.07;100.00;101574.41;5069485;28;20103;-68
2022/11/14 04:36:26;;;;;;;117.43;26.38;;;;;;;5.63;100.00;101659.81;5071022;28;20490;-68
2022/11/14 04:38:52;;;;;;;136.20;26.48;;;;;;;5.51;100.00;101672.56;5071011;28;20085;-68
2022/11/14 04:41:17;;;;;;;79.05;27.52;;;;;;;5.45;100.00;101645.59;5070796;28;20024;-68
2022/11/14 04:43:43;;;;;;;175.05;46.50;;;;;;;5.56;100.00;101680.63;5070376;28;20043;-69
2022/11/14 04:46:08;;;;;;;173.30;38.80;;;;;;;4.61;100.00;101524.03;5070574;28;20024;-68
2022/11/14 04:48:33;;;;;;;160.68;36.95;;;;;;;5.51;100.00;101687.06;5069426;28;20044;-68
2022/11/14 04:50:59;;;;;;;113.05;25.75;;;;;;;5.21;100.00;101686.47;5070643;28;20137;-68
2022/11/14 04:53:24;;;;;;;99.03;23.85;;;;;;;4.88;100.00;101698.38;5070771;28;20464;-69
2022/11/14 04:55:50;;;;;;;88.50;20.33;;;;;;;4.66;100.00;101694.09;5070445;28;20697;-68
2022/11/14 04:58:15;;;;;;;73.50;20.83;;;;;;;4.43;100.00;101699.91;5070375;28;20124;-68
2022/11/14 05:00:40;;;;;;;124.50;21.70;;;;;;;4.50;100.00;101703.88;5070486;28;20086;-71
2022/11/14 05:03:06;;;;;;;87.63;22.58;;;;;;;3.63;100.00;101555.41;5070571;28;20085;-68
2022/11/14 05:05:31;;;;;;;86.40;22.52;;;;;;;4.23;100.00;101689.72;5070574;28;20073;-68
2022/11/14 05:07:57;;;;;;;48.38;19.52;;;;;;;4.07;100.00;101692.69;5065293;28;20049;-67
2022/11/14 05:10:23;;;;;;;58.85;21.35;;;;;;;3.81;100.00;101701.59;5066285;28;20028;-68
2022/11/14 05:12:53;;;;;;;92.00;22.20;;;;;;;3.77;100.00;101684.25;5061439;28;20035;-68
2022/11/14 05:15:18;;;;;;;;;;;;;;;3.95;100.00;101696.00;5064179;28;20114;-67
2022/11/14 05:17:43;;;;;;;74.05;20.17;;;;;;;3.95;100.00;101693.44;5050405;28;19989;-68
2022/11/14 05:20:10;;;;;;;66.38;21.08;;;;;;;3.94;100.00;101701.88;5052666;28;20025;-68
2022/11/14 05:22:35;;;;;;;77.85;20.40;;;;;;;4.01;100.00;101701.63;5065726;28;20044;-68
2022/11/14 05:25:00;;;;;;;72.82;21.48;;;;;;;4.14;100.00;101695.84;5065533;28;20406;-68
2022/11/14 05:27:27;;;;;;;99.30;21.48;;;;;;;4.20;100.00;101700.59;5070031;28;20024;-67
2022/11/14 05:29:54;;;;;;;71.20;20.25;;;;;;;4.29;100.00;101703.00;5070500;28;20035;-68
2022/11/14 05:32:20;;;;;;;77.38;19.80;;;;;;;4.24;100.00;101694.97;5070381;28;20024;-68
2022/11/14 05:34:45;;;;;;;50.50;19.13;;;;;;;4.19;100.00;101707.34;5071535;28;20166;-68
2022/11/14 05:37:11;;;;;;;59.22;19.17;;;;;;;4.06;100.00;101707.09;5074906;28;20107;-68
2022/11/14 05:39:36;;;;;;;60.70;19.05;;;;;;;4.00;100.00;101716.81;5074412;28;20092;-67
2022/11/14 05:42:01;;;;;;;61.92;20.20;;;;;;;3.79;100.00;101704.03;5074011;28;20559;-67
2022/11/14 05:44:27;;;;;;;72.75;20.60;;;;;;;3.04;100.00;101574.38;5074165;28;20836;-67
2022/11/14 05:46:52;;;;;;;81.32;21.83;;;;;;;3.25;100.00;101610.13;5074109;28;20020;-68
2022/11/14 05:49:18;;;;;;;80.60;20.15;;;;;;;3.88;100.00;101714.13;5074099;28;20467;-68
2022/11/14 05:51:43;;;;;;;72.50;20.48;;;;;;;3.95;100.00;101708.78;5074215;28;20108;-68
2022/11/14 05:54:09;;;;;;;63.75;20.65;;;;;;;3.68;100.00;101694.56;5074117;28;20111;-67
2022/11/14 05:56:34;;;;;;;59.35;20.83;;;;;;;2.93;100.00;101557.28;5073906;28;20395;-67
2022/11/14 05:58:59;;;;;;;89.38;22.13;;;;;;;3.81;100.00;101710.16;5072575;28;20418;-69
2022/11/14 06:01:26;;;;;;;40.05;19.67;;;;;;;3.79;100.00;101714.25;5062086;28;20037;-68
2022/11/14 06:03:52;;;;;;;49.75;18.33;;;;;;;3.52;100.00;101716.25;5071412;28;20028;-68
2022/11/14 06:06:20;;;;;;;51.45;20.77;;;;;;;3.56;100.00;101730.16;5072276;28;20040;-67
2022/11/14 06:08:46;;;;;;;59.63;20.58;;;;;;;3.51;100.00;101695.69;5053675;28;20534;-67
2022/11/14 06:11:22;;;;;;;52.70;19.85;;;;;;;3.59;100.00;101722.78;5053855;28;20040;-68
2022/11/14 06:13:47;;;;;;;65.10;20.30;;;;;;;3.66;100.00;101689.31;5053545;28;20033;-68
2022/11/14 06:16:18;;;;;;;58.38;20.55;;;;;;;3.12;100.00;101577.59;5068121;28;20090;-67
2022/11/14 06:18:44;;;;;;;56.72;20.33;;;;;;;3.60;100.00;101681.16;5073406;28;20024;-68
2022/11/14 06:21:16;;;;;;;60.78;19.75;;;;;;;3.50;100.00;101687.16;5073313;28;20123;-68
2022/11/14 06:23:42;;;;;;;49.28;18.92;;;;;;;3.75;100.00;101726.63;5073340;28;20029;-68
2022/11/14 06:26:19;;;;;;;56.60;20.05;;;;;;;3.71;100.00;101718.72;5073624;28;20112;-68
2022/11/14 06:28:45;;;;;;;58.70;19.83;;;;;;;3.79;100.00;101713.34;5073348;28;20031;-68
2022/11/14 06:31:10;;;;;;;46.45;21.63;;;;;;;3.17;100.00;101594.16;5073344;28;20123;-68
2022/11/14 06:33:36;;;;;;;45.22;20.50;;;;;;;3.15;100.00;101582.94;5073199;28;20085;-69
2022/11/14 06:36:04;;;;;;;45.58;22.60;;;;;;;3.93;100.00;101717.97;5072946;28;20079;-70
2022/11/14 06:38:31;;;;;;;34.20;21.35;;;;;;;4.05;100.00;101708.78;5072864;28;20482;-68
2022/11/14 06:41:10;;;;;;;34.33;20.52;;;;;;;4.26;100.00;101719.00;5073098;28;20028;-69
2022/11/14 06:43:37;;;;;;;33.75;20.77;;;;;;;4.32;100.00;101714.34;5104588;28;20044;-68
2022/11/14 06:46:04;;;;;;;29.75;19.40;;;;;;;4.45;100.00;101723.94;5072524;28;20166;-69
2022/11/14 06:48:30;;;;;;;33.72;21.27;;;;;;;4.38;100.00;101719.97;5072889;28;20036;-67
2022/11/14 06:50:57;;;;;;;29.83;20.85;;;;;;;4.56;100.00;101723.91;5072872;28;20036;-67
2022/11/14 06:53:24;;;;;;;31.45;20.58;;;;;;;4.72;100.00;101731.19;5070599;28;20487;-68
2022/11/14 06:56:04;;;;;;;28.45;20.08;;;;;;;4.68;100.00;101699.34;5072745;28;20025;-68
2022/11/14 06:58:32;;;;;;;35.22;20.95;;;;;;;4.63;100.00;101708.31;5088503;28;20031;-68
2022/11/14 07:01:05;;;;;;;29.20;20.10;;;;;;;4.71;100.00;101702.16;5072949;28;20024;-68
2022/11/14 07:03:31;;;;;;;29.90;21.25;;;;;;;4.78;100.00;101713.75;5071490;28;20052;-68
2022/11/14 07:05:58;;;;;;;31.05;22.65;;;;;;;4.94;100.00;101719.34;5071418;28;20024;-68
2022/11/14 07:08:23;;;;;;;26.92;20.50;;;;;;;4.95;100.00;101698.09;5072726;28;20056;-68
2022/11/14 07:10:49;;;;;;;29.58;21.45;;;;;;;5.10;100.00;101715.44;5072846;28;20042;-66
2022/11/14 07:13:15;;;;;;;31.52;22.20;;;;;;;4.88;100.00;101685.56;5072652;28;20074;-68
2022/11/14 07:15:48;;;;;;;33.45;23.25;;;;;;;5.01;100.00;101713.06;5072585;28;20029;-68
2022/11/14 07:18:14;;;;;;;32.42;22.45;;;;;;;5.08;100.00;101725.53;5072349;28;20024;-68
2022/11/14 07:20:39;;;;;;;31.05;22.33;;;;;;;5.18;100.00;101720.41;5072285;28;20024;-68
2022/11/14 07:23:05;;;;;;;34.15;22.38;;;;;;;5.32;100.00;101725.69;5069999;28;20055;-67
2022/11/14 07:25:30;;;;;;;30.27;21.50;;;;;;;5.19;100.00;101713.59;5072283;28;20028;-68
2022/11/14 07:27:57;;;;;;;31.60;23.15;;;;;;;5.26;100.00;101726.13;5072452;28;20094;-68
2022/11/14 07:30:22;;;;;;;32.35;22.77;;;;;;;5.35;100.00;101713.13;5071947;28;20107;-67
2022/11/14 07:32:54;;;;;;;28.48;21.27;;;;;;;5.54;100.00;101723.13;5072059;28;20455;-68
2022/11/14 07:35:19;;;;;;;28.77;20.55;;;;;;;5.39;100.00;101674.19;5059822;28;20124;-69
2022/11/14 07:37:45;;;;;;;28.02;20.67;;;;;;;5.41;100.00;101646.13;5071488;28;20044;-69
2022/11/14 07:40:11;;;;;;;28.95;21.42;;;;;;;5.14;100.00;101605.72;5071921;28;20408;-66
2022/11/14 07:42:36;;;;;;;27.15;20.70;;;;;;;5.65;100.00;101704.34;5052406;28;20017;-67
2022/11/14 07:45:01;;;;;;;29.08;20.50;;;;;;;5.20;100.00;101656.50;5051818;28;20440;-67
2022/11/14 07:47:27;;;;;;;30.02;20.85;;;;;;;5.44;100.00;101706.16;5051972;28;20021;-67
2022/11/14 07:49:53;;;;;;;26.65;20.55;;;;;;;5.61;100.00;101704.03;5051944;28;20146;-67
2022/11/14 07:52:19;;;;;;;28.38;21.48;;;;;;;5.68;100.00;101706.25;5052010;28;20025;-68
2022/11/14 07:54:44;;;;;;;31.42;20.25;;;;;;;5.74;100.00;101698.16;5051781;28;20032;-67
2022/11/14 07:57:10;;;;;;;30.05;20.75;;;;;;;5.84;100.00;101700.63;5051003;28;20128;-68
2022/11/14 07:59:35;;;;;;;28.50;21.00;;;;;;;6.01;100.00;101712.22;5051745;28;20095;-68
2022/11/14 08:02:02;;;;;;;27.90;21.42;;;;;;;6.09;100.00;101715.34;5051639;28;20036;-67
2022/11/14 08:04:27;;;;;;;32.05;22.55;;;;;;;6.16;100.00;101707.34;5066896;28;20116;-67
2022/11/14 08:06:54;;;;;;;27.20;21.00;;;;;;;6.19;100.00;101705.00;5051465;28;20082;-67
2022/11/14 08:09:19;;;;;;;30.40;21.30;;;;;;;6.19;100.00;101709.25;5049871;28;20049;-65
2022/11/14 08:11:47;;;;;;;30.80;22.23;;;;;;;6.24;100.00;101708.81;5053776;28;20112;-68
2022/11/14 08:14:13;;;;;;;29.30;21.25;;;;;;;6.40;100.00;101705.69;5051026;28;20043;-67
2022/11/14 08:16:38;;;;;;;26.02;20.05;;;;;;;6.41;100.00;101706.59;5052844;28;20108;-67
2022/11/14 08:19:04;;;;;;;26.45;19.73;;;;;;;6.39;100.00;101706.50;5059854;28;20074;-68
2022/11/14 08:21:29;;;;;;;26.30;19.85;;;;;;;6.37;100.00;101715.75;5061975;28;20028;-68
2022/11/14 08:23:55;;;;;;;30.05;21.27;;;;;;;6.50;100.00;101708.94;5059943;28;20021;-68
2022/11/14 08:26:20;;;;;;;27.30;19.85;;;;;;;6.43;100.00;101685.41;5061230;28;20068;-67
2022/11/14 08:28:46;;;;;;;25.98;19.77;;;;;;;6.58;100.00;101708.72;5067307;28;20037;-69
2022/11/14 08:31:12;;;;;;;26.70;20.42;;;;;;;6.73;100.00;101708.94;5067226;28;20043;-68
2022/11/14 08:33:38;;;;;;;26.88;19.70;;;;;;;6.64;100.00;101675.81;5069566;28;20111;-66
2022/11/14 08:36:05;;;;;;;25.05;19.15;;;;;;;6.77;100.00;101700.69;5069794;28;20113;-69
2022/11/14 08:38:33;;;;;;;27.42;19.02;;;;;;;5.60;100.00;101487.94;5082689;28;20033;-70
2022/11/14 08:41:00;;;;;;;24.42;18.65;;;;;;;6.35;100.00;101627.50;5068918;28;20111;-68
2022/11/14 08:43:26;;;;;;;24.65;19.42;;;;;;;6.64;100.00;101693.78;5068574;28;20039;-68
2022/11/14 08:45:51;;;;;;;26.90;19.33;;;;;;;6.76;100.00;101705.72;5068759;28;20474;-68
2022/11/14 08:48:18;;;;;;;25.40;19.15;;;;;;;6.85;100.00;101716.63;5068162;28;20450;-68
2022/11/14 08:50:43;;;;;;;27.55;19.38;;;;;;;6.87;100.00;101686.84;5067824;28;20038;-69
2022/11/14 08:53:08;;;;;;;25.05;19.00;;;;;;;6.89;100.00;101700.69;5057449;28;20033;-68
2022/11/14 08:55:34;;;;;;;23.45;18.98;;;;;;;7.08;100.00;101686.59;5066688;28;20028;-68
2022/11/14 08:57:59;;;;;;;22.20;18.52;;;;;;;7.25;100.00;101683.53;5068863;28;20024;-67
2022/11/14 09:00:25;;;;;;;23.77;18.45;;;;;;;7.39;100.00;101681.00;5069219;28;20024;-70
2022/11/14 09:02:50;;;;;;;25.45;19.45;;;;;;;7.48;100.00;101670.47;5067720;28;20379;-68
2022/11/14 09:05:16;;;;;;;26.33;19.70;;;;;;;7.61;100.00;101674.00;5063676;28;20043;-70
2022/11/14 09:07:41;;;;;;;24.30;20.23;;;;;;;7.61;100.00;101668.88;5069071;28;20085;-67
2022/11/14 09:10:07;;;;;;;25.70;20.05;;;;;;;6.97;100.00;101532.66;5069332;28;20474;-68
2022/11/14 09:12:33;;;;;;;36.63;22.15;;;;;;;7.83;100.00;101670.31;5069357;28;20021;-67
2022/11/14 09:14:59;;;;;;;26.75;20.13;;;;;;;7.63;100.00;101650.97;5069203;28;20028;-67
2022/11/14 09:17:24;;;;;;;26.42;20.48;;;;;;;7.16;100.00;101551.00;5069200;28;20042;-68
2022/11/14 09:19:50;;;;;;;25.70;21.40;;;;;;;7.35;100.00;101550.56;5069090;28;20031;-69
2022/11/14 09:22:15;;;;;;;27.00;21.25;;;;;;;8.19;100.00;101675.25;5069253;28;20186;-69
2022/11/14 09:24:42;;;;;;;27.63;20.50;;;;;;;8.24;100.00;101658.44;5069357;28;20032;-65
2022/11/14 09:27:07;;;;;;;27.15;20.80;;;;;;;8.19;100.00;101634.97;5069075;28;20479;-67
2022/11/14 09:29:33;;;;;;;26.33;20.80;;;;;;;7.83;100.00;101554.63;5069137;28;20063;-68
2022/11/14 09:31:58;;;;;;;28.10;21.15;;;;;;;8.46;100.00;101654.66;5069141;28;20028;-67
2022/11/14 09:34:23;;;;;;;28.95;22.50;;;;;;;8.30;100.00;101642.50;5067743;28;20888;-69
2022/11/14 09:36:49;;;;;;;33.28;21.65;;;;;;;8.33;100.00;101628.16;5061750;28;20124;-68
2022/11/14 09:39:14;;;;;;;27.73;21.95;;;;;;;8.21;100.00;101617.06;5060846;28;20044;-66
2022/11/14 09:42:03;;;;;;;27.65;21.00;;;;;;;7.87;100.00;101563.44;5063166;28;20067;-70
2022/11/14 09:44:44;;;;;;;24.80;20.33;;;;;;;8.42;100.00;101639.06;5067554;28;20034;-69
2022/11/14 09:47:14;;;;;;;24.77;20.83;;;;;;;8.58;100.00;101611.75;5084290;28;20043;-71
2022/11/14 09:49:42;;;;;;;25.67;20.63;;;;;;;8.91;100.00;101612.09;5061504;28;20028;-68
2022/11/14 09:52:43;;;;;;;29.88;21.80;;;;;;;9.23;100.00;101608.91;5068942;28;20020;-68
2022/11/14 09:55:28;;;;;;;24.85;19.67;;;;;;;9.20;100.00;101606.13;5068610;28;20032;-69
2022/11/14 09:57:55;;;;;;;29.80;21.23;;;;;;;9.10;100.00;101598.66;5069044;28;20071;-72
2022/11/14 10:00:23;;;;;;;28.98;20.42;;;;;;;8.52;100.00;101486.13;5065996;28;20035;-69
2022/11/14 10:03:09;;;;;;;27.30;19.48;;;;;;;9.37;100.00;101606.25;5063365;28;20114;-68
2022/11/14 10:06:10;;;;;;;28.52;20.60;;;;;;;9.05;100.00;101497.03;5067845;28;20067;-68
2022/11/14 10:08:53;;;;;;;24.58;20.05;;;;;;;9.97;100.00;101585.66;5068611;28;20079;-68
2022/11/14 10:11:33;;;;;;;27.73;18.52;;;;;;;10.23;100.00;101586.28;5060033;28;20052;-67
2022/11/14 10:14:30;;;;;;;36.20;23.15;;;;;;;10.40;100.00;101571.75;5061228;28;20029;-69
2022/11/14 10:17:23;;;;;;;23.63;20.25;;;;;;;10.54;100.00;101580.25;5064276;28;20036;-68
2022/11/14 10:20:22;;;;;;;28.92;21.45;;;;;;;10.79;100.00;101569.56;5067688;28;20047;-68
2022/11/14 10:23:06;;;;;;;27.98;21.38;;;;;;;10.98;100.00;101568.88;5072262;28;20119;-66
2022/11/14 10:25:56;;;;;;;24.88;20.70;;;;;;;11.10;100.00;101568.63;5065481;28;20028;-69
2022/11/14 10:28:28;;;;;;;27.00;22.55;;;;;;;11.19;100.00;101573.38;5067283;28;20059;-67
2022/11/14 10:31:12;;;;;;;31.23;23.58;;;;;;;11.32;100.00;101563.75;5067616;28;20032;-68
2022/11/14 10:33:50;;;;;;;30.35;25.20;;;;;;;11.13;100.00;101512.81;5063790;28;20395;-66
2022/11/14 10:36:48;;;;;;;29.70;24.08;;;;;;;11.24;100.00;101551.22;5068793;28;20036;-65
2022/11/14 10:39:28;;;;;;;32.03;24.70;;;;;;;11.39;100.00;101552.03;5071194;28;20039;-67
2022/11/14 10:41:58;;;;;;;31.75;23.60;;;;;;;11.32;100.00;101544.78;5066322;28;20127;-69
2022/11/14 10:44:37;;;;;;;33.22;23.38;;;;;;;11.20;100.00;101545.00;5068170;28;20032;-67
2022/11/14 10:47:13;;;;;;;34.27;24.23;;;;;;;11.16;100.00;101518.16;5070851;28;20060;-68
2022/11/14 10:49:39;;;;;;;32.72;23.15;;;;;;;11.28;100.00;101519.59;5068853;28;20255;-67
2022/11/14 10:52:14;;;;;;;33.92;24.02;;;;;;;11.60;100.00;101546.16;5064327;28;20021;-65
2022/11/14 10:54:52;;;;;;;31.02;23.63;;;;;;;11.54;100.00;101505.38;5066281;28;20063;-64
2022/11/14 10:57:20;;;;;;;30.80;20.92;;;;;;;11.51;100.00;101488.81;5071503;28;20052;-63
2022/11/14 10:59:46;;;;;;;32.22;22.77;;;;;;;11.91;100.00;101532.16;5058015;28;20047;-69
2022/11/14 11:02:12;;;;;;;37.28;22.92;;;;;;;12.06;100.00;101532.03;5069406;28;20036;-68
2022/11/14 11:04:40;;;;;;;36.60;23.08;;;;;;;12.11;100.00;101518.53;5057522;28;20549;-68
2022/11/14 11:07:05;;;;;;;36.75;23.23;;;;;;;12.13;100.00;101523.75;5051955;28;20411;-68
2022/11/14 11:12:20;;;;;;;42.78;25.02;;;;;;;12.07;100.00;101511.41;5059291;28;20044;-69